Time;durP1;ratioP1;P1;durP2;ratioP2;P2;SDS_P1;SDS_P2;PMS_P1;PMS_P2;Temp;Humidity;BMP_temperature;BMP_pressure;BME280_temperature;BME280_humidity;BME280_pressure;Samples;Min_cycle;Max_cycle;Signal;HPM_P1;HPM_P2
2021/12/27 00:01:16;;;;;;;1.95;1.23;;;;;;;;;;5052211;28;20560;-68
2021/12/27 00:03:42;;;;;;;3.95;1.40;;;;;;;;;;5051019;28;20108;-68
2021/12/27 00:06:09;;;;;;;3.00;1.75;;;;;;;;;;5052070;28;20493;-68
2021/12/27 00:08:39;;;;;;;5.55;3.20;;;;;;;;;;5051834;28;20520;-68
2021/12/27 00:11:05;;;;;;;4.30;1.30;;;;;;;;;;5052116;28;20044;-68
2021/12/27 00:13:31;;;;;;;7.05;1.10;;;;;;;;;;5051682;28;20029;-68
2021/12/27 00:15:58;;;;;;;6.43;1.63;;;;;;;;;;5051982;28;20074;-68
2021/12/27 00:18:24;;;;;;;3.58;1.10;;;;;;;;;;5051321;28;20025;-68
2021/12/27 00:20:50;;;;;;;6.38;1.23;;;;;;;;;;5051811;28;20033;-68
2021/12/27 00:23:16;;;;;;;7.07;1.17;;;;;;;;;;5052068;28;20020;-68
2021/12/27 00:25:42;;;;;;;5.72;1.50;;;;;;;;;;5051658;28;20029;-68
2021/12/27 00:28:08;;;;;;;5.65;1.05;;;;;;;;;;5051823;28;20025;-69
2021/12/27 00:30:34;;;;;;;7.00;0.93;;;;;;;;;;5051759;28;20481;-68
2021/12/27 00:33:00;;;;;;;2.35;1.35;;;;;;;;;;5051100;28;20056;-69
2021/12/27 00:35:29;;;;;;;5.53;1.05;;;;;;;;;;5051780;28;20075;-69
2021/12/27 00:37:55;;;;;;;5.70;1.02;;;;;;;;;;5033901;28;20041;-69
2021/12/27 00:40:21;;;;;;;4.75;1.08;;;;;;;;;;5051576;28;20408;-69
2021/12/27 00:42:49;;;;;;;8.63;1.67;;;;;;;;;;5033503;28;20428;-69
2021/12/27 00:45:15;;;;;;;7.80;1.70;;;;;;;;;;5051547;28;20071;-69
2021/12/27 00:47:41;;;;;;;9.57;1.52;;;;;;;;;;5051119;28;20029;-69
2021/12/27 00:50:08;;;;;;;4.68;1.20;;;;;;;;;;5033854;28;20033;-69
2021/12/27 00:52:35;;;;;;;6.13;1.17;;;;;;;;;;5052669;28;20081;-69
2021/12/27 00:55:03;;;;;;;5.72;1.10;;;;;;;;;;5055208;28;20044;-69
2021/12/27 00:57:29;;;;;;;5.65;1.20;;;;;;;;;;5055218;28;20040;-69
2021/12/27 00:59:55;;;;;;;7.82;1.40;;;;;;;;;;5055020;28;20036;-69
2021/12/27 01:02:21;;;;;;;10.23;1.70;;;;;;;;;;5055208;28;20021;-69
2021/12/27 01:04:47;;;;;;;5.53;1.75;;;;;;;;;;5054957;28;20021;-69
2021/12/27 01:07:14;;;;;;;3.85;1.27;;;;;;;;;;5054994;28;20036;-69
2021/12/27 01:14:54;;;;;;;3.97;1.30;;;;;;;;;;5054805;28;20031;-69
2021/12/27 01:17:20;;;;;;;6.57;1.35;;;;;;;;;;5054645;28;20033;-68
2021/12/27 01:19:47;;;;;;;7.53;1.63;;;;;;;;;;5036396;28;20393;-68
2021/12/27 01:22:16;;;;;;;12.35;2.95;;;;;;;;;;5054970;28;20033;-68
2021/12/27 01:24:43;;;;;;;8.63;2.10;;;;;;;;;;5054632;28;20025;-68
2021/12/27 01:27:09;;;;;;;6.38;1.52;;;;;;;;;;5054820;28;20025;-68
2021/12/27 01:29:35;;;;;;;8.02;1.67;;;;;;;;;;5054329;28;20033;-68
2021/12/27 01:32:02;;;;;;;10.65;2.28;;;;;;;;;;5054068;28;20106;-68
2021/12/27 01:34:30;;;;;;;8.07;1.85;;;;;;;;;;5054655;28;20098;-68
2021/12/27 01:36:57;;;;;;;18.27;4.35;;;;;;;;;;5054222;28;20528;-68
2021/12/27 01:39:24;;;;;;;15.20;3.05;;;;;;;;;;5054521;28;20029;-68
2021/12/27 01:41:50;;;;;;;8.05;2.30;;;;;;;;;;5054277;28;20088;-68
2021/12/27 01:44:16;;;;;;;17.45;2.90;;;;;;;;;;5036650;28;20033;-68
2021/12/27 01:46:42;;;;;;;13.18;2.78;;;;;;;;;;5035843;28;20489;-68
2021/12/27 01:49:08;;;;;;;12.90;2.70;;;;;;;;;;5054421;28;20037;-68
2021/12/27 01:51:39;;;;;;;18.23;2.90;;;;;;;;;;5054042;28;20105;-67
2021/12/27 01:54:06;;;;;;;18.25;3.03;;;;;;;;;;5054072;28;20033;-67
2021/12/27 01:56:32;;;;;;;19.92;3.28;;;;;;;;;;5054274;28;20500;-67
2021/12/27 01:58:59;;;;;;;14.68;2.60;;;;;;;;;;5053591;28;20064;-67
2021/12/27 02:01:26;;;;;;;12.85;3.00;;;;;;;;;;5053904;28;20025;-67
2021/12/27 02:03:53;;;;;;;11.13;2.67;;;;;;;;;;5053334;28;20059;-67
2021/12/27 02:06:20;;;;;;;17.25;3.05;;;;;;;;;;5053738;28;20025;-67
2021/12/27 02:08:46;;;;;;;11.02;2.67;;;;;;;;;;5053679;28;20501;-68
2021/12/27 02:11:15;;;;;;;12.45;3.17;;;;;;;;;;5053965;28;20025;-68
2021/12/27 02:13:43;;;;;;;15.85;3.40;;;;;;;;;;5053440;28;20047;-68
2021/12/27 02:16:11;;;;;;;11.68;2.80;;;;;;;;;;5053765;28;20056;-68
2021/12/27 02:18:37;;;;;;;11.18;2.80;;;;;;;;;;5053453;28;20090;-68
2021/12/27 02:21:04;;;;;;;13.80;3.15;;;;;;;;;;5053821;28;20021;-67
2021/12/27 02:23:30;;;;;;;14.45;3.45;;;;;;;;;;5053778;28;20534;-68
2021/12/27 02:25:56;;;;;;;8.68;3.03;;;;;;;;;;5053523;28;20150;-68
2021/12/27 02:28:22;;;;;;;10.07;2.58;;;;;;;;;;5053210;28;20397;-67
2021/12/27 02:30:51;;;;;;;7.18;3.05;;;;;;;;;;5053283;28;20025;-67
2021/12/27 02:33:17;;;;;;;18.67;3.70;;;;;;;;;;5053402;28;20025;-68
2021/12/27 02:35:46;;;;;;;15.45;3.08;;;;;;;;;;5053255;28;20382;-68
2021/12/27 02:38:14;;;;;;;11.90;2.92;;;;;;;;;;5053022;28;20053;-68
2021/12/27 02:40:41;;;;;;;7.32;2.80;;;;;;;;;;5053320;28;20035;-68
2021/12/27 02:43:11;;;;;;;17.33;3.40;;;;;;;;;;5052725;28;20028;-68
2021/12/27 02:45:48;;;;;;;12.80;3.70;;;;;;;;;;5053399;28;20021;-68
2021/12/27 02:48:15;;;;;;;12.65;3.45;;;;;;;;;;5053163;28;20036;-68
2021/12/27 02:50:42;;;;;;;15.05;3.10;;;;;;;;;;5052886;28;20432;-68
2021/12/27 02:53:09;;;;;;;16.00;3.22;;;;;;;;;;5052753;28;20090;-68
2021/12/27 02:55:36;;;;;;;17.33;4.22;;;;;;;;;;5053001;28;20028;-68
2021/12/27 02:58:02;;;;;;;14.88;4.40;;;;;;;;;;5052568;28;20452;-68
2021/12/27 03:00:30;;;;;;;16.27;4.00;;;;;;;;;;5052568;28;20060;-68
2021/12/27 03:02:57;;;;;;;22.73;5.07;;;;;;;;;;5052738;28;20036;-68
2021/12/27 03:05:23;;;;;;;23.23;4.93;;;;;;;;;;5052892;28;20021;-68
2021/12/27 03:07:50;;;;;;;11.60;4.85;;;;;;;;;;5052665;28;20492;-68
2021/12/27 03:10:18;;;;;;;16.27;4.93;;;;;;;;;;5052753;28;20104;-68
2021/12/27 03:12:45;;;;;;;14.50;4.63;;;;;;;;;;5052343;28;20079;-68
2021/12/27 03:15:12;;;;;;;28.35;5.38;;;;;;;;;;5051952;28;20033;-68
2021/12/27 03:17:38;;;;;;;13.43;4.88;;;;;;;;;;5052062;28;20493;-68
2021/12/27 03:20:06;;;;;;;22.60;5.47;;;;;;;;;;5052429;28;20032;-68
2021/12/27 03:22:32;;;;;;;13.75;4.78;;;;;;;;;;5052520;28;20017;-68
2021/12/27 03:24:58;;;;;;;15.60;4.50;;;;;;;;;;5052231;28;20048;-68
2021/12/27 03:27:24;;;;;;;18.23;4.65;;;;;;;;;;5052050;28;20025;-68
2021/12/27 03:29:51;;;;;;;13.25;4.22;;;;;;;;;;5052277;28;20060;-68
2021/12/27 03:32:18;;;;;;;16.52;5.15;;;;;;;;;;5052537;28;20033;-68
2021/12/27 03:34:54;;;;;;;10.38;4.40;;;;;;;;;;5052310;28;20028;-68
2021/12/27 03:37:21;;;;;;;16.70;5.00;;;;;;;;;;5051814;28;20102;-68
2021/12/27 03:39:47;;;;;;;11.98;3.97;;;;;;;;;;5052059;28;20037;-68
2021/12/27 03:42:15;;;;;;;17.13;4.47;;;;;;;;;;5051729;28;20025;-68
2021/12/27 03:44:41;;;;;;;14.88;3.55;;;;;;;;;;5052370;28;20020;-68
2021/12/27 03:47:07;;;;;;;18.52;3.90;;;;;;;;;;5052061;28;20032;-68
2021/12/27 03:49:33;;;;;;;6.70;3.00;;;;;;;;;;5052081;28;20373;-68
2021/12/27 03:51:59;;;;;;;10.70;3.38;;;;;;;;;;5033853;28;20444;-68
2021/12/27 03:54:25;;;;;;;7.10;2.40;;;;;;;;;;5052150;28;20025;-68
2021/12/27 03:56:51;;;;;;;5.00;2.42;;;;;;;;;;5051316;28;20116;-68
2021/12/27 03:59:24;;;;;;;5.53;2.45;;;;;;;;;;5052062;28;20377;-68
2021/12/27 04:01:50;;;;;;;3.90;1.77;;;;;;;;;;5052002;28;20021;-68
2021/12/27 04:04:16;;;;;;;5.53;1.55;;;;;;;;;;5034292;28;20426;-68
2021/12/27 04:06:43;;;;;;;2.03;1.30;;;;;;;;;;5051263;28;20028;-68
2021/12/27 04:09:09;;;;;;;2.22;1.23;;;;;;;;;;5052038;28;20029;-68
2021/12/27 04:11:35;;;;;;;1.52;1.02;;;;;;;;;;5051303;28;20028;-68
2021/12/27 04:14:02;;;;;;;5.18;1.30;;;;;;;;;;5051702;28;20025;-68
2021/12/27 04:16:28;;;;;;;3.03;1.30;;;;;;;;;;5051974;28;20515;-68
2021/12/27 04:18:55;;;;;;;3.05;1.05;;;;;;;;;;5017238;28;20017;-68
2021/12/27 04:21:21;;;;;;;4.00;1.17;;;;;;;;;;5052037;28;20120;-68
2021/12/27 04:23:47;;;;;;;2.42;1.60;;;;;;;;;;5051833;28;20025;-68
2021/12/27 04:26:13;;;;;;;1.25;1.10;;;;;;;;;;5051155;28;20021;-68
2021/12/27 04:28:39;;;;;;;1.27;0.90;;;;;;;;;;5054972;28;20041;-68
2021/12/27 04:31:05;;;;;;;4.15;0.90;;;;;;;;;;5055552;28;20037;-68
2021/12/27 04:33:31;;;;;;;1.58;0.80;;;;;;;;;;5055871;28;20079;-68
2021/12/27 04:35:57;;;;;;;1.52;0.88;;;;;;;;;;5055442;28;20028;-68
2021/12/27 04:38:23;;;;;;;2.17;0.80;;;;;;;;;;5055300;28;20123;-67
2021/12/27 04:40:51;;;;;;;2.25;0.70;;;;;;;;;;5055242;28;20118;-67
2021/12/27 04:43:19;;;;;;;1.15;0.70;;;;;;;;;;5055518;28;20017;-68
2021/12/27 04:45:45;;;;;;;0.68;0.63;;;;;;;;;;5037739;28;20119;-68
2021/12/27 04:48:12;;;;;;;1.42;0.75;;;;;;;;;;5055219;28;20115;-68
2021/12/27 04:50:38;;;;;;;1.13;0.70;;;;;;;;;;5055598;28;20017;-68
2021/12/27 04:53:05;;;;;;;0.80;0.70;;;;;;;;;;5054959;28;20074;-68
2021/12/27 04:55:34;;;;;;;1.40;0.60;;;;;;;;;;5055153;28;20075;-68
2021/12/27 04:58:00;;;;;;;2.60;0.70;;;;;;;;;;5055128;28;20122;-68
2021/12/27 05:00:27;;;;;;;1.15;0.50;;;;;;;;;;5055153;28;20036;-68
2021/12/27 05:02:53;;;;;;;2.25;0.93;;;;;;;;;;5054911;28;20029;-68
2021/12/27 05:05:19;;;;;;;1.05;0.68;;;;;;;;;;5055110;28;20028;-68
2021/12/27 05:07:47;;;;;;;3.00;0.60;;;;;;;;;;5054803;28;20029;-68
2021/12/27 05:10:16;;;;;;;2.28;0.60;;;;;;;;;;5054665;28;20017;-68
2021/12/27 05:12:42;;;;;;;0.93;0.47;;;;;;;;;;5055267;28;20080;-68
2021/12/27 05:15:08;;;;;;;5.38;0.80;;;;;;;;;;5054790;28;20033;-68
2021/12/27 05:17:34;;;;;;;10.57;2.00;;;;;;;;;;5054848;28;20511;-68
2021/12/27 05:20:04;;;;;;;6.05;0.90;;;;;;;;;;5054798;28;20067;-68
2021/12/27 05:22:31;;;;;;;5.60;1.17;;;;;;;;;;5054700;28;20040;-68
2021/12/27 05:24:57;;;;;;;5.97;1.13;;;;;;;;;;5054601;28;20028;-68
2021/12/27 05:27:24;;;;;;;9.27;1.60;;;;;;;;;;5054923;28;20040;-68
2021/12/27 05:29:50;;;;;;;9.63;1.83;;;;;;;;;;5054630;28;20029;-68
2021/12/27 05:32:16;;;;;;;22.50;3.25;;;;;;;;;;5054257;28;20441;-68
2021/12/27 05:34:42;;;;;;;14.73;2.38;;;;;;;;;;5054683;28;20052;-68
2021/12/27 05:37:08;;;;;;;27.65;4.70;;;;;;;;;;5053877;28;20053;-68
2021/12/27 05:39:34;;;;;;;26.88;3.80;;;;;;;;;;5053849;28;20481;-68
2021/12/27 05:42:01;;;;;;;33.30;4.47;;;;;;;;;;5054394;28;20032;-68
2021/12/27 05:44:27;;;;;;;34.72;5.15;;;;;;;;;;5054359;28;20053;-68
2021/12/27 05:46:54;;;;;;;49.70;5.80;;;;;;;;;;5036748;28;20562;-68
2021/12/27 05:49:21;;;;;;;52.50;6.57;;;;;;;;;;5054274;28;20481;-68
2021/12/27 05:51:47;;;;;;;49.30;7.00;;;;;;;;;;5035992;28;20370;-68
2021/12/27 05:54:14;;;;;;;50.28;6.28;;;;;;;;;;5053958;28;20032;-68
2021/12/27 05:56:40;;;;;;;48.83;6.45;;;;;;;;;;5054262;28;20024;-68
2021/12/27 05:59:07;;;;;;;50.00;7.72;;;;;;;;;;5054035;28;20021;-69
2021/12/27 06:01:33;;;;;;;50.67;7.25;;;;;;;;;;5054086;28;20021;-68
2021/12/27 06:03:59;;;;;;;52.80;9.07;;;;;;;;;;5053896;28;20013;-69
2021/12/27 06:06:26;;;;;;;63.42;8.65;;;;;;;;;;5053417;28;20108;-68
2021/12/27 06:08:52;;;;;;;63.33;7.70;;;;;;;;;;5054213;28;20040;-68
2021/12/27 06:11:18;;;;;;;52.08;9.13;;;;;;;;;;5053891;28;20028;-68
2021/12/27 06:13:45;;;;;;;56.17;7.57;;;;;;;;;;5048904;28;20100;-68
2021/12/27 06:16:11;;;;;;;76.93;9.20;;;;;;;;;;5052805;28;20032;-68
2021/12/27 06:18:37;;;;;;;59.03;9.43;;;;;;;;;;5051200;28;20037;-68
2021/12/27 06:21:04;;;;;;;57.75;7.78;;;;;;;;;;5051283;28;20013;-68
2021/12/27 06:23:31;;;;;;;57.65;7.82;;;;;;;;;;5052790;28;20025;-68
2021/12/27 06:25:57;;;;;;;66.88;9.15;;;;;;;;;;5052811;28;20500;-68
2021/12/27 06:28:23;;;;;;;58.10;8.18;;;;;;;;;;5056840;28;20024;-69
2021/12/27 06:30:49;;;;;;;58.88;8.55;;;;;;;;;;5054712;28;20524;-69
2021/12/27 06:33:16;;;;;;;54.17;8.15;;;;;;;;;;5051816;28;20028;-69
2021/12/27 06:35:42;;;;;;;68.13;7.88;;;;;;;;;;5054038;28;20378;-68
2021/12/27 06:38:09;;;;;;;60.20;9.02;;;;;;;;;;5050254;28;20045;-68
2021/12/27 06:40:35;;;;;;;67.50;9.30;;;;;;;;;;5053366;28;20040;-69
2021/12/27 06:43:01;;;;;;;65.22;9.18;;;;;;;;;;5052846;28;20028;-68
2021/12/27 06:45:27;;;;;;;65.75;9.00;;;;;;;;;;5043206;28;20397;-69
2021/12/27 06:47:53;;;;;;;62.05;10.70;;;;;;;;;;5046081;28;20059;-68
2021/12/27 06:50:23;;;;;;;67.68;9.02;;;;;;;;;;5049731;28;20412;-69
2021/12/27 06:52:49;;;;;;;55.75;8.30;;;;;;;;;;5048552;28;20042;-68
2021/12/27 06:55:15;;;;;;;58.83;8.95;;;;;;;;;;5051070;28;20108;-68
2021/12/27 06:57:41;;;;;;;74.00;9.07;;;;;;;;;;5052390;28;20434;-68
2021/12/27 07:00:09;;;;;;;69.97;10.65;;;;;;;;;;5051607;28;20060;-68
2021/12/27 07:02:35;;;;;;;60.28;9.38;;;;;;;;;;5049638;28;20021;-68
2021/12/27 07:05:01;;;;;;;77.03;10.13;;;;;;;;;;5049510;28;20024;-68
2021/12/27 07:07:27;;;;;;;72.43;10.65;;;;;;;;;;5042961;28;20543;-68
2021/12/27 07:09:53;;;;;;;71.43;11.55;;;;;;;;;;5049449;28;20025;-68
2021/12/27 07:12:19;;;;;;;76.05;11.35;;;;;;;;;;5049943;28;20025;-68
2021/12/27 07:14:48;;;;;;;88.25;11.63;;;;;;;;;;5046916;28;20087;-68
2021/12/27 07:17:14;;;;;;;79.53;10.40;;;;;;;;;;5051928;28;20103;-68
2021/12/27 07:19:40;;;;;;;85.20;11.35;;;;;;;;;;5051623;28;20565;-68
2021/12/27 07:22:07;;;;;;;72.78;10.57;;;;;;;;;;5048043;28;20039;-67
2021/12/27 07:24:33;;;;;;;89.10;11.93;;;;;;;;;;5048128;28;20337;-67
2021/12/27 07:26:59;;;;;;;68.93;10.45;;;;;;;;;;5046811;28;20086;-68
2021/12/27 07:29:25;;;;;;;81.15;11.32;;;;;;;;;;5051499;28;20035;-68
2021/12/27 07:31:52;;;;;;;83.78;13.68;;;;;;;;;;5046548;28;20135;-65
2021/12/27 07:34:19;;;;;;;96.85;11.63;;;;;;;;;;5042542;28;20112;-61
2021/12/27 07:36:46;;;;;;;85.13;12.90;;;;;;;;;;5043728;28;20045;-62
2021/12/27 07:39:13;;;;;;;70.47;9.50;;;;;;;;;;5045765;28;20095;-64
2021/12/27 07:41:39;;;;;;;95.05;13.45;;;;;;;;;;5038109;28;20078;-63
2021/12/27 07:44:07;;;;;;;86.35;13.10;;;;;;;;;;5027637;28;20033;-63
2021/12/27 07:46:35;;;;;;;75.72;12.88;;;;;;;;;;5044104;28;20051;-63
2021/12/27 07:49:02;;;;;;;77.55;13.07;;;;;;;;;;5052664;28;20443;-63
2021/12/27 07:51:28;;;;;;;110.60;12.55;;;;;;;;;;5057219;28;20024;-63
2021/12/27 07:53:54;;;;;;;69.18;12.77;;;;;;;;;;5058551;28;20100;-63
2021/12/27 07:56:20;;;;;;;80.90;12.10;;;;;;;;;;5050696;28;20037;-64
2021/12/27 07:58:46;;;;;;;86.15;13.13;;;;;;;;;;5058206;28;20029;-63
2021/12/27 08:01:12;;;;;;;86.72;12.75;;;;;;;;;;5056400;28;20124;-63
2021/12/27 08:03:39;;;;;;;74.32;13.57;;;;;;;;;;5033923;28;20025;-63
2021/12/27 08:06:05;;;;;;;86.25;12.15;;;;;;;;;;5060033;28;20044;-64
2021/12/27 08:08:31;;;;;;;75.75;12.60;;;;;;;;;;5061042;28;20103;-63
2021/12/27 08:10:57;;;;;;;90.35;13.13;;;;;;;;;;5065755;28;20055;-64
2021/12/27 08:13:23;;;;;;;92.03;13.45;;;;;;;;;;5049538;28;20572;-63
2021/12/27 08:15:49;;;;;;;82.15;13.13;;;;;;;;;;5049456;28;20104;-63
2021/12/27 08:18:15;;;;;;;93.85;11.68;;;;;;;;;;5035675;28;20136;-64
2021/12/27 08:20:41;;;;;;;86.55;12.82;;;;;;;;;;5039286;28;20036;-64
2021/12/27 08:23:07;;;;;;;86.72;12.82;;;;;;;;;;5047099;28;20013;-63
2021/12/27 08:25:34;;;;;;;74.20;11.65;;;;;;;;;;5044776;28;20113;-64
2021/12/27 08:28:00;;;;;;;92.57;13.30;;;;;;;;;;5046540;28;20493;-63
2021/12/27 08:30:27;;;;;;;86.88;12.15;;;;;;;;;;5047671;28;20025;-63
2021/12/27 08:32:55;;;;;;;90.60;13.73;;;;;;;;;;5034840;28;20432;-64
2021/12/27 08:35:22;;;;;;;98.10;13.95;;;;;;;;;;5038882;28;20386;-63
2021/12/27 08:37:48;;;;;;;71.65;13.25;;;;;;;;;;5048563;28;20199;-63
2021/12/27 08:40:14;;;;;;;88.95;12.07;;;;;;;;;;5040646;28;20041;-65
2021/12/27 08:42:41;;;;;;;98.40;12.93;;;;;;;;;;5032262;28;20100;-63
2021/12/27 08:45:07;;;;;;;101.70;14.32;;;;;;;;;;5044302;28;20037;-63
2021/12/27 08:47:33;;;;;;;88.78;13.00;;;;;;;;;;5040102;28;20021;-63
2021/12/27 08:50:00;;;;;;;69.82;12.93;;;;;;;;;;5041754;28;20064;-63
2021/12/27 08:52:27;;;;;;;74.38;12.35;;;;;;;;;;5047412;28;20560;-63
2021/12/27 08:54:53;;;;;;;79.22;11.15;;;;;;;;;;5045592;28;20031;-63
2021/12/27 08:57:19;;;;;;;80.97;13.27;;;;;;;;;;5036242;28;20056;-63
2021/12/27 08:59:45;;;;;;;93.43;13.52;;;;;;;;;;5039426;28;20082;-64
2021/12/27 09:02:12;;;;;;;83.60;11.25;;;;;;;;;;5043704;28;20074;-63
2021/12/27 09:04:38;;;;;;;85.82;12.15;;;;;;;;;;5039303;28;20025;-63
2021/12/27 09:07:04;;;;;;;79.35;12.32;;;;;;;;;;5044747;28;20386;-63
2021/12/27 09:09:31;;;;;;;82.15;13.00;;;;;;;;;;5047046;28;20040;-63
2021/12/27 09:11:57;;;;;;;96.57;15.00;;;;;;;;;;5042977;28;20505;-63
2021/12/27 09:14:23;;;;;;;67.03;10.57;;;;;;;;;;5050702;28;20528;-63
2021/12/27 09:16:49;;;;;;;94.95;13.07;;;;;;;;;;5050095;28;20061;-63
2021/12/27 09:19:16;;;;;;;82.43;13.60;;;;;;;;;;5034999;28;20460;-63
2021/12/27 09:21:42;;;;;;;95.95;12.50;;;;;;;;;;5052662;28;20021;-63
2021/12/27 09:24:08;;;;;;;87.90;13.52;;;;;;;;;;5048670;28;20404;-63
2021/12/27 09:26:35;;;;;;;96.60;15.63;;;;;;;;;;5047501;28;20027;-63
2021/12/27 09:29:01;;;;;;;90.80;12.38;;;;;;;;;;5046581;28;20033;-63
2021/12/27 09:31:28;;;;;;;75.03;10.27;;;;;;;;;;5060735;28;20037;-63
2021/12/27 09:33:54;;;;;;;94.68;11.68;;;;;;;;;;5042023;28;20031;-63
2021/12/27 09:36:20;;;;;;;77.97;12.25;;;;;;;;;;5044463;28;20036;-63
2021/12/27 09:38:47;;;;;;;90.53;13.98;;;;;;;;;;5046403;28;20029;-63
2021/12/27 09:41:14;;;;;;;85.38;13.80;;;;;;;;;;5052786;28;20104;-63
2021/12/27 09:43:40;;;;;;;77.07;12.68;;;;;;;;;;5049933;28;20029;-63
2021/12/27 09:46:06;;;;;;;79.82;11.25;;;;;;;;;;5044285;28;20400;-63
2021/12/27 09:48:34;;;;;;;86.47;12.68;;;;;;;;;;5052874;28;20512;-64
2021/12/27 09:51:00;;;;;;;83.38;12.13;;;;;;;;;;5037646;28;20068;-64
2021/12/27 09:53:26;;;;;;;82.72;12.73;;;;;;;;;;5044299;28;20074;-63
2021/12/27 09:55:52;;;;;;;75.32;13.23;;;;;;;;;;5040825;28;20489;-63
2021/12/27 09:58:20;;;;;;;65.00;11.07;;;;;;;;;;5046501;28;20047;-63
2021/12/27 10:00:46;;;;;;;88.38;14.55;;;;;;;;;;5048523;28;20077;-63
2021/12/27 10:03:12;;;;;;;78.05;13.45;;;;;;;;;;5044301;28;20047;-63
2021/12/27 10:05:38;;;;;;;70.32;14.80;;;;;;;;;;5059495;28;20016;-63
2021/12/27 10:08:05;;;;;;;60.13;12.70;;;;;;;;;;5054927;28;20028;-63
2021/12/27 10:10:32;;;;;;;82.68;12.70;;;;;;;;;;5037918;28;20033;-63
2021/12/27 10:12:58;;;;;;;77.10;11.70;;;;;;;;;;5052657;28;20021;-64
2021/12/27 10:15:32;;;;;;;81.63;10.75;;;;;;;;;;5045935;28;20437;-64
2021/12/27 10:18:06;;;;;;;67.47;12.23;;;;;;;;;;5055897;28;20021;-64
2021/12/27 10:20:32;;;;;;;68.38;10.73;;;;;;;;;;5065561;28;20055;-63
2021/12/27 10:22:58;;;;;;;67.68;12.48;;;;;;;;;;5054385;28;20087;-64
2021/12/27 10:25:26;;;;;;;76.60;12.05;;;;;;;;;;5039753;28;20022;-63
2021/12/27 10:27:53;;;;;;;82.55;12.82;;;;;;;;;;5046713;28;20385;-62
2021/12/27 10:30:21;;;;;;;66.30;12.07;;;;;;;;;;5040615;28;20116;-66
2021/12/27 10:33:05;;;;;;;71.30;11.73;;;;;;;;;;5037983;28;20033;-70
2021/12/27 10:35:36;;;;;;;78.32;11.52;;;;;;;;;;5043153;28;20523;-66
2021/12/27 10:38:14;;;;;;;82.82;11.80;;;;;;;;;;5044526;28;20417;-71
2021/12/27 10:40:47;;;;;;;69.30;10.73;;;;;;;;;;5022229;28;20116;-67
2021/12/27 10:43:13;;;;;;;60.55;11.07;;;;;;;;;;5036026;28;20489;-67
2021/12/27 10:45:39;;;;;;;71.60;12.43;;;;;;;;;;5034280;28;20047;-68
2021/12/27 10:48:05;;;;;;;82.15;12.90;;;;;;;;;;5037790;28;20067;-71
2021/12/27 10:50:33;;;;;;;81.07;12.00;;;;;;;;;;5038682;28;20029;-67
2021/12/27 10:53:03;;;;;;;74.57;13.68;;;;;;;;;;5047141;28;20039;-68
2021/12/27 10:55:32;;;;;;;70.07;10.93;;;;;;;;;;5045718;28;20044;-69
2021/12/27 10:58:20;;;;;;;62.17;10.25;;;;;;;;;;5040607;28;20028;-68
2021/12/27 11:01:11;;;;;;;63.92;9.98;;;;;;;;;;5047532;28;20077;-71
2021/12/27 11:03:39;;;;;;;72.93;10.70;;;;;;;;;;5039450;28;20026;-70
2021/12/27 11:06:07;;;;;;;64.28;10.15;;;;;;;;;;5045359;28;20028;-68
2021/12/27 11:08:34;;;;;;;71.72;10.63;;;;;;;;;;5044123;28;20151;-67
2021/12/27 11:11:00;;;;;;;66.60;10.38;;;;;;;;;;5045706;28;20037;-71
2021/12/27 11:13:27;;;;;;;71.63;10.00;;;;;;;;;;5043081;28;20033;-72
2021/12/27 11:15:53;;;;;;;65.60;11.13;;;;;;;;;;5045028;28;20084;-65
2021/12/27 11:18:20;;;;;;;53.85;10.60;;;;;;;;;;5051804;28;20544;-67
2021/12/27 11:20:47;;;;;;;58.83;9.35;;;;;;;;;;5026225;28;20532;-65
2021/12/27 11:23:14;;;;;;;63.45;10.43;;;;;;;;;;5051216;28;20029;-70
2021/12/27 11:25:42;;;;;;;62.00;10.35;;;;;;;;;;5029745;28;20048;-68
2021/12/27 11:28:43;;;;;;;60.60;10.63;;;;;;;;;;5025339;28;20073;-68
2021/12/27 11:31:15;;;;;;;64.93;10.18;;;;;;;;;;4951850;28;20079;-63
2021/12/27 11:33:54;;;;;;;67.17;8.90;;;;;;;;;;4937821;28;20050;-65
2021/12/27 11:36:20;;;;;;;75.68;9.57;;;;;;;;;;4945338;28;20035;-66
2021/12/27 11:38:48;;;;;;;74.10;11.32;;;;;;;;;;4933732;29;20086;-69
2021/12/27 11:41:36;;;;;;;61.75;10.07;;;;;;;;;;4949844;28;20082;-70
2021/12/27 11:44:06;;;;;;;58.22;9.70;;;;;;;;;;4946171;28;20499;-68
2021/12/27 11:46:47;;;;;;;57.95;9.18;;;;;;;;;;4951356;28;20042;-70
2021/12/27 11:49:14;;;;;;;62.88;9.70;;;;;;;;;;4950629;28;20031;-68
2021/12/27 11:51:40;;;;;;;49.65;9.88;;;;;;;;;;4954970;28;20400;-68
2021/12/27 11:54:27;;;;;;;56.17;10.10;;;;;;;;;;4934844;29;20401;-70
2021/12/27 11:56:53;;;;;;;53.97;8.40;;;;;;;;;;4952657;28;20035;-68
2021/12/27 11:59:25;;;;;;;52.80;10.43;;;;;;;;;;4950055;28;20417;-72
2021/12/27 12:01:52;;;;;;;53.33;11.00;;;;;;;;;;4953390;28;20051;-67
2021/12/27 12:04:50;;;;;;;58.50;11.68;;;;;;;;;;4962213;28;20038;-64
2021/12/27 12:07:35;;;;;;;46.38;7.88;;;;;;;;;;4935133;29;20479;-69
2021/12/27 12:10:04;;;;;;;44.42;8.82;;;;;;;;;;4928202;29;20063;-63
2021/12/27 12:12:30;;;;;;;54.05;8.90;;;;;;;;;;4915044;29;20036;-63
2021/12/27 12:14:58;;;;;;;52.95;8.93;;;;;;;;;;4930657;29;20071;-64
2021/12/27 12:17:44;;;;;;;40.65;7.60;;;;;;;;;;4931727;29;20480;-64
2021/12/27 12:20:27;;;;;;;52.20;8.60;;;;;;;;;;4930340;29;20040;-63
2021/12/27 12:22:59;;;;;;;39.85;7.40;;;;;;;;;;4930238;29;20032;-64
2021/12/27 12:25:26;;;;;;;46.03;8.05;;;;;;;;;;4932200;29;20136;-64
2021/12/27 12:27:53;;;;;;;52.28;10.30;;;;;;;;;;4930982;29;20076;-64
2021/12/27 12:30:19;;;;;;;60.47;9.20;;;;;;;;;;4929374;29;20083;-64
2021/12/27 12:33:04;;;;;;;44.42;8.40;;;;;;;;;;4931455;29;20966;-64
2021/12/27 12:35:34;;;;;;;51.55;8.23;;;;;;;;;;4928484;29;20035;-64
2021/12/27 12:38:15;;;;;;;51.15;8.07;;;;;;;;;;4927841;29;20084;-63
2021/12/27 12:40:41;;;;;;;52.08;8.68;;;;;;;;;;4930519;29;20031;-64
2021/12/27 12:43:08;;;;;;;49.90;8.13;;;;;;;;;;4987574;28;20041;-63
2021/12/27 12:45:36;;;;;;;42.30;8.63;;;;;;;;;;5027327;28;20504;-64
2021/12/27 12:48:02;;;;;;;50.90;8.85;;;;;;;;;;5027215;28;20021;-63
2021/12/27 12:50:29;;;;;;;44.10;8.45;;;;;;;;;;5032656;28;20061;-64
2021/12/27 12:52:57;;;;;;;53.38;10.27;;;;;;;;;;5025608;28;20448;-63
2021/12/27 12:55:25;;;;;;;47.35;8.98;;;;;;;;;;5025020;28;20485;-64
2021/12/27 12:57:52;;;;;;;56.70;9.05;;;;;;;;;;5034767;28;20133;-63
2021/12/27 13:00:25;;;;;;;56.22;8.23;;;;;;;;;;5027477;28;20036;-63
2021/12/27 13:02:51;;;;;;;53.33;8.30;;;;;;;;;;5028893;28;20030;-63
2021/12/27 13:05:20;;;;;;;61.47;10.15;;;;;;;;;;5030648;28;20052;-64
2021/12/27 13:07:49;;;;;;;66.10;8.55;;;;;;;;;;5034788;28;20055;-64
2021/12/27 13:10:22;;;;;;;47.83;8.80;;;;;;;;;;5032576;28;20476;-63
2021/12/27 13:12:48;;;;;;;56.03;8.32;;;;;;;;;;5030405;28;20025;-64
2021/12/27 13:15:14;;;;;;;57.40;8.93;;;;;;;;;;5025101;28;20022;-64
2021/12/27 13:17:41;;;;;;;60.65;8.27;;;;;;;;;;5032476;28;20036;-63
2021/12/27 13:20:07;;;;;;;50.65;7.60;;;;;;;;;;5028965;28;20025;-63
2021/12/27 13:22:40;;;;;;;42.92;7.57;;;;;;;;;;5023192;28;20044;-63
2021/12/27 13:25:06;;;;;;;43.67;7.85;;;;;;;;;;5017525;28;20021;-63
2021/12/27 13:27:32;;;;;;;48.53;7.63;;;;;;;;;;5029479;28;20040;-63
2021/12/27 13:30:08;;;;;;;51.85;8.75;;;;;;;;;;5028083;28;20127;-63
2021/12/27 13:32:35;;;;;;;41.65;8.13;;;;;;;;;;5032436;28;20033;-63
2021/12/27 13:35:01;;;;;;;47.00;8.57;;;;;;;;;;5031415;28;20104;-63
2021/12/27 13:37:28;;;;;;;43.10;7.75;;;;;;;;;;5038365;28;20520;-63
2021/12/27 13:40:04;;;;;;;36.80;8.85;;;;;;;;;;5052993;28;20105;-63
2021/12/27 13:42:30;;;;;;;51.92;7.68;;;;;;;;;;5048757;28;20017;-63
2021/12/27 13:45:06;;;;;;;50.42;9.60;;;;;;;;;;5047835;28;20014;-64
2021/12/27 13:47:33;;;;;;;47.90;7.60;;;;;;;;;;5048620;28;20029;-63
2021/12/27 13:49:59;;;;;;;50.45;8.43;;;;;;;;;;5050397;28;20021;-63
2021/12/27 13:52:25;;;;;;;41.35;8.30;;;;;;;;;;5049724;28;20078;-63
2021/12/27 13:54:53;;;;;;;47.38;10.55;;;;;;;;;;5052130;28;20036;-63
2021/12/27 13:57:20;;;;;;;46.33;8.70;;;;;;;;;;5049741;28;20119;-63
2021/12/27 13:59:49;;;;;;;43.75;8.55;;;;;;;;;;5050368;28;20447;-63
2021/12/27 14:02:16;;;;;;;57.92;9.10;;;;;;;;;;5048313;28;20017;-63
2021/12/27 14:04:42;;;;;;;47.17;8.88;;;;;;;;;;5050905;28;20100;-63
2021/12/27 14:07:09;;;;;;;54.17;8.50;;;;;;;;;;5029910;28;20033;-63
2021/12/27 14:09:37;;;;;;;53.42;8.25;;;;;;;;;;5049713;28;20021;-63
2021/12/27 14:12:05;;;;;;;51.00;9.52;;;;;;;;;;5031810;28;20041;-63
2021/12/27 14:14:39;;;;;;;49.70;10.02;;;;;;;;;;5052285;28;20042;-63
2021/12/27 14:17:05;;;;;;;52.35;9.65;;;;;;;;;;5045065;28;20040;-64
2021/12/27 14:19:31;;;;;;;62.90;9.85;;;;;;;;;;5043692;28;20028;-63
2021/12/27 14:22:00;;;;;;;57.28;10.75;;;;;;;;;;5047827;28;20477;-63
2021/12/27 14:24:29;;;;;;;65.47;10.43;;;;;;;;;;5049822;28;20097;-63
2021/12/27 14:26:55;;;;;;;47.47;9.05;;;;;;;;;;5049370;28;20497;-63
2021/12/27 14:29:22;;;;;;;54.80;11.60;;;;;;;;;;5050800;28;20389;-63
2021/12/27 14:31:53;;;;;;;62.15;9.60;;;;;;;;;;5049104;28;20024;-63
2021/12/27 14:34:38;;;;;;;50.72;8.90;;;;;;;;;;5048973;28;20033;-63
2021/12/27 14:37:04;;;;;;;62.33;9.23;;;;;;;;;;5036990;28;20118;-63